Time;durP1;ratioP1;P1;durP2;ratioP2;P2;SDS_P1;SDS_P2;PMS_P1;PMS_P2;Temp;Humidity;BMP_temperature;BMP_pressure;BME280_temperature;BME280_humidity;BME280_pressure;Samples;Min_cycle;Max_cycle;Signal;HPM_P1;HPM_P2
2023/07/14 00:01:20;;;;;;;17.12;3.47;;;;;;;20.01;97.55;98256.41;4471500;32;20100;-82
2023/07/14 00:03:48;;;;;;;13.40;3.42;;;;;;;19.82;98.95;98257.00;4457493;32;20102;-82
2023/07/14 00:06:16;;;;;;;15.05;3.97;;;;;;;19.91;98.46;98252.84;4471176;32;20120;-82
2023/07/14 00:08:45;;;;;;;17.58;3.62;;;;;;;20.25;95.91;98255.44;4471332;32;20115;-82
2023/07/14 00:11:16;;;;;;;13.95;3.60;;;;;;;20.23;95.90;98248.53;4471482;32;20172;-83
2023/07/14 00:13:44;;;;;;;10.57;3.50;;;;;;;20.21;96.88;98258.31;4471237;32;20107;-83
2023/07/14 00:16:17;;;;;;;11.07;3.75;;;;;;;20.23;96.39;98260.81;4471426;32;20081;-82
2023/07/14 00:18:45;;;;;;;12.15;3.42;;;;;;;20.43;94.28;98261.88;4471302;32;20097;-82
2023/07/14 00:21:22;;;;;;;9.68;3.42;;;;;;;20.22;95.75;98253.91;4470997;32;20168;-82
2023/07/14 00:23:50;;;;;;;12.63;3.67;;;;;;;20.31;94.94;98266.28;4471276;32;20084;-82
2023/07/14 00:26:19;;;;;;;12.48;3.55;;;;;;;19.91;97.21;98258.91;4470897;32;20108;-83
2023/07/14 00:28:48;;;;;;;9.38;3.25;;;;;;;19.61;100.00;98259.47;4471178;32;20155;-82
2023/07/14 00:31:17;;;;;;;8.80;3.17;;;;;;;19.74;100.00;98248.06;4470999;32;20417;-82
2023/07/14 00:33:47;;;;;;;7.80;3.45;;;;;;;20.08;97.72;98246.28;4470847;32;20103;-82
2023/07/14 00:36:15;;;;;;;9.27;3.30;;;;;;;19.84;99.07;98244.62;4471977;32;20100;-82
2023/07/14 00:38:42;;;;;;;6.87;3.40;;;;;;;20.34;95.57;98247.69;4472950;32;20127;-83
2023/07/14 00:41:27;;;;;;;11.57;3.50;;;;;;;20.37;95.08;98250.06;4472629;32;20152;-83
2023/07/14 00:43:54;;;;;;;9.10;3.47;;;;;;;20.37;94.46;98254.47;4472983;32;20092;-83
2023/07/14 00:46:29;;;;;;;9.82;3.65;;;;;;;19.93;97.32;98256.16;4473018;32;20085;-82
2023/07/14 00:49:04;;;;;;;7.20;3.12;;;;;;;20.39;95.00;98255.16;4458535;32;20146;-83
2023/07/14 00:51:33;;;;;;;7.93;3.03;;;;;;;20.29;94.79;98249.81;4458995;32;20122;-83
2023/07/14 00:54:00;;;;;;;8.18;3.33;;;;;;;20.32;93.71;98246.16;4472658;32;20102;-83
2023/07/14 00:56:32;;;;;;;8.73;3.00;;;;;;;20.58;91.11;98250.16;4472909;32;20143;-82
2023/07/14 00:59:00;;;;;;;8.05;3.10;;;;;;;20.67;89.66;98251.22;4472846;32;20164;-82
2023/07/14 01:01:28;;;;;;;10.88;3.33;;;;;;;20.40;90.54;98234.06;4458542;32;20105;-82
2023/07/14 01:03:56;;;;;;;10.10;3.25;;;;;;;20.39;91.86;98237.66;4458767;32;20096;-82
2023/07/14 01:06:40;;;;;;;9.00;3.30;;;;;;;20.56;90.01;98238.13;4472782;32;20137;-82
2023/07/14 01:09:09;;;;;;;8.73;3.10;;;;;;;20.65;88.93;98245.28;4472472;32;20161;-83
2023/07/14 01:11:39;;;;;;;7.68;3.10;;;;;;;20.83;87.50;98246.38;4472897;32;20149;-83
2023/07/14 01:14:11;;;;;;;10.85;3.25;;;;;;;20.85;87.19;98246.28;4458745;32;20159;-83
2023/07/14 01:16:38;;;;;;;6.70;3.15;;;;;;;20.61;88.81;98247.28;4472533;32;20077;-83
2023/07/14 01:19:13;;;;;;;11.23;3.55;;;;;;;20.45;89.20;98250.31;4458786;32;20097;-83
2023/07/14 01:21:41;;;;;;;10.23;3.37;;;;;;;20.67;88.09;98249.44;4472842;32;20109;-83
2023/07/14 01:24:14;;;;;;;11.43;3.40;;;;;;;20.39;89.26;98253.38;4458422;32;20163;-83
2023/07/14 01:26:41;;;;;;;13.00;3.55;;;;;;;20.28;89.63;98250.78;4472795;32;20358;-82
2023/07/14 01:29:08;;;;;;;10.18;3.50;;;;;;;20.05;92.14;98254.38;4472165;32;20374;-82
2023/07/14 01:31:35;;;;;;;11.27;3.80;;;;;;;20.04;91.99;98253.53;4472727;32;20089;-82
2023/07/14 01:34:02;;;;;;;9.80;3.03;;;;;;;20.18;90.81;98249.84;4472668;32;20419;-83
2023/07/14 01:36:29;;;;;;;12.70;3.33;;;;;;;20.14;90.32;98235.31;4458160;32;20414;-82
2023/07/14 01:38:57;;;;;;;14.87;3.62;;;;;;;20.34;89.84;98252.09;4458402;32;20109;-82
2023/07/14 01:41:24;;;;;;;10.45;3.20;;;;;;;20.15;90.59;98260.56;4472562;32;20096;-82
2023/07/14 01:43:51;;;;;;;11.77;3.65;;;;;;;20.13;90.18;98255.44;4472203;32;20080;-83
2023/07/14 01:46:19;;;;;;;12.43;3.50;;;;;;;19.86;92.08;98263.66;4472595;32;20172;-82
2023/07/14 01:49:22;;;;;;;11.50;3.72;;;;;;;20.05;90.54;98262.22;4445108;32;20148;-82
2023/07/14 01:51:50;;;;;;;13.85;3.50;;;;;;;20.07;90.56;98262.94;4442102;32;20093;-82
2023/07/14 01:54:33;;;;;;;9.85;3.90;;;;;;;19.37;94.09;98269.16;4458611;32;20131;-82
2023/07/14 01:57:02;;;;;;;8.50;3.50;;;;;;;19.68;93.13;98269.50;4458588;32;20171;-82
2023/07/14 01:59:34;;;;;;;8.73;3.28;;;;;;;20.14;89.85;98264.13;4458317;32;20528;-82
2023/07/14 02:02:02;;;;;;;9.68;3.28;;;;;;;20.28;88.24;98266.50;4458378;32;20507;-82
2023/07/14 02:04:32;;;;;;;10.73;3.42;;;;;;;20.25;88.80;98261.50;4458070;32;20092;-83
2023/07/14 02:07:01;;;;;;;10.10;3.35;;;;;;;19.99;89.93;98260.06;4472347;32;20149;-82
2023/07/14 02:09:30;;;;;;;8.18;3.40;;;;;;;20.36;87.52;98261.50;4458691;32;20434;-83
2023/07/14 02:12:00;;;;;;;9.25;3.12;;;;;;;20.50;85.57;98265.66;4457951;32;20243;-83
2023/07/14 02:14:30;;;;;;;9.00;3.20;;;;;;;19.92;88.64;98263.19;4458346;32;20152;-83
2023/07/14 02:17:03;;;;;;;8.05;3.20;;;;;;;20.51;85.18;98272.56;4458491;32;20149;-82
2023/07/14 02:19:31;;;;;;;7.90;3.03;;;;;;;20.18;85.95;98274.25;4458100;32;20105;-83
2023/07/14 02:21:58;;;;;;;11.35;3.72;;;;;;;20.08;87.22;98278.53;4458245;32;20115;-83
2023/07/14 02:24:26;;;;;;;9.93;3.50;;;;;;;19.53;90.54;98281.91;4458213;32;20456;-83
2023/07/14 02:26:59;;;;;;;9.23;3.42;;;;;;;20.12;87.97;98287.00;4457978;32;20134;-83
2023/07/14 02:29:26;;;;;;;12.82;3.15;;;;;;;19.93;88.85;98288.44;4472053;32;20507;-82
2023/07/14 02:31:58;;;;;;;7.85;3.08;;;;;;;20.31;84.93;98283.75;4472247;32;20131;-82
2023/07/14 02:34:31;;;;;;;10.32;3.40;;;;;;;20.13;85.38;98283.44;4472054;32;20096;-83
2023/07/14 02:36:59;;;;;;;7.85;3.20;;;;;;;19.87;87.88;98290.66;4458262;32;20088;-83
2023/07/14 02:39:29;;;;;;;8.10;3.22;;;;;;;19.21;91.95;98293.00;4471859;32;20148;-83
2023/07/14 02:41:57;;;;;;;9.45;2.80;;;;;;;19.28;91.48;98288.16;4472192;32;20093;-83
2023/07/14 02:44:31;;;;;;;9.20;3.83;;;;;;;19.12;92.63;98284.97;4472068;32;20089;-83
2023/07/14 02:47:12;;;;;;;9.25;3.42;;;;;;;19.14;92.01;98281.34;4471876;32;20077;-83
2023/07/14 02:49:40;;;;;;;8.05;3.28;;;;;;;19.30;90.98;98279.22;4472161;32;20114;-83
2023/07/14 02:52:07;;;;;;;10.55;3.28;;;;;;;19.84;87.93;98281.28;4472156;32;20128;-83
2023/07/14 02:54:33;;;;;;;7.00;3.47;;;;;;;19.57;89.10;98283.38;4471807;32;20159;-83
2023/07/14 02:57:00;;;;;;;8.88;3.55;;;;;;;19.08;92.55;98284.38;4472064;32;20111;-83
2023/07/14 02:59:27;;;;;;;8.88;3.20;;;;;;;19.50;90.23;98284.75;4470891;32;20089;-83
2023/07/14 03:01:54;;;;;;;8.85;3.60;;;;;;;19.84;87.75;98294.37;4471722;32;20108;-83
2023/07/14 03:04:23;;;;;;;8.63;3.12;;;;;;;20.08;86.83;98277.69;4472002;32;20084;-83
2023/07/14 03:06:50;;;;;;;10.35;3.45;;;;;;;20.21;85.40;98281.88;4472014;32;20344;-83
2023/07/14 03:09:17;;;;;;;7.78;3.22;;;;;;;20.08;84.83;98278.53;4471593;32;20119;-83
2023/07/14 03:11:44;;;;;;;10.82;3.03;;;;;;;20.10;84.45;98281.91;4472042;32;20109;-83
2023/07/14 03:14:11;;;;;;;9.73;3.22;;;;;;;19.91;86.04;98273.78;4472049;32;20491;-83
2023/07/14 03:16:38;;;;;;;10.05;3.72;;;;;;;20.08;84.48;98283.78;4471694;32;20085;-83
2023/07/14 03:19:05;;;;;;;8.63;3.30;;;;;;;19.29;89.79;98285.41;4471846;32;20101;-83
2023/07/14 03:21:32;;;;;;;8.77;3.08;;;;;;;19.51;88.57;98287.25;4471676;32;20101;-83
2023/07/14 03:23:59;;;;;;;8.52;3.10;;;;;;;19.90;86.04;98285.22;4471859;32;20100;-83
2023/07/14 03:26:26;;;;;;;8.13;3.20;;;;;;;19.69;87.13;98286.84;4471946;32;20076;-83
2023/07/14 03:28:53;;;;;;;7.00;3.12;;;;;;;19.74;86.18;98288.16;4471478;32;20101;-83
2023/07/14 03:31:20;;;;;;;8.73;3.50;;;;;;;19.73;86.56;98278.63;4471708;32;20115;-83
2023/07/14 03:33:47;;;;;;;11.25;3.50;;;;;;;19.51;87.91;98283.81;4471837;32;20148;-83
2023/07/14 03:36:15;;;;;;;11.32;2.95;;;;;;;19.32;88.93;98279.09;4471477;32;20089;-83
2023/07/14 03:38:43;;;;;;;8.77;3.08;;;;;;;19.80;86.21;98289.50;4471645;32;20093;-83
2023/07/14 03:41:12;;;;;;;7.55;3.12;;;;;;;20.05;84.11;98277.94;4471892;32;20161;-83
2023/07/14 03:43:40;;;;;;;6.37;2.87;;;;;;;19.69;85.42;98284.25;4471388;32;20149;-83
2023/07/14 03:46:07;;;;;;;8.88;3.30;;;;;;;20.37;81.97;98276.25;4471700;32;20096;-83
2023/07/14 03:48:34;;;;;;;10.02;3.47;;;;;;;20.33;81.18;98271.41;4471559;32;20451;-83
2023/07/14 03:51:04;;;;;;;7.90;3.00;;;;;;;20.28;82.66;98290.09;4471291;32;20417;-83
2023/07/14 03:53:31;;;;;;;8.25;3.20;;;;;;;20.67;80.22;98285.28;4471681;32;20102;-83
2023/07/14 03:55:58;;;;;;;7.57;3.00;;;;;;;20.84;79.70;98283.91;4457611;32;20123;-83
2023/07/14 03:58:25;;;;;;;8.05;2.97;;;;;;;21.02;80.47;98292.94;4471098;32;20101;-83
2023/07/14 04:00:52;;;;;;;9.60;3.10;;;;;;;21.27;77.96;98302.31;4471647;32;20097;-83
2023/07/14 04:03:19;;;;;;;11.55;2.83;;;;;;;21.64;75.55;98300.06;4457482;32;20163;-84
2023/07/14 04:05:46;;;;;;;6.72;2.70;;;;;;;21.14;78.72;98294.53;4471195;32;20085;-84
2023/07/14 04:08:14;;;;;;;9.13;3.25;;;;;;;22.07;74.16;98301.72;4457638;32;20117;-86
2023/07/14 04:10:41;;;;;;;6.07;2.70;;;;;;;22.36;72.35;98293.94;4471303;32;20110;-85
2023/07/14 04:13:08;;;;;;;8.80;2.75;;;;;;;22.71;70.38;98304.81;4472436;32;20501;-82
2023/07/14 04:15:35;;;;;;;5.53;2.35;;;;;;;23.41;68.66;98302.97;4471684;32;20156;-84
2023/07/14 04:18:02;;;;;;;8.85;2.80;;;;;;;23.52;64.51;98308.09;4473148;32;20089;-83
2023/07/14 04:20:28;;;;;;;7.47;2.72;;;;;;;23.77;63.06;98311.13;4471578;32;20164;-84
2023/07/14 04:22:57;;;;;;;5.93;2.50;;;;;;;23.78;62.90;98308.34;4474024;32;20173;-83
2023/07/14 04:25:25;;;;;;;6.05;2.60;;;;;;;24.01;61.40;98306.19;4456914;32;20093;-86
2023/07/14 04:27:53;;;;;;;7.87;2.53;;;;;;;23.57;62.87;98303.22;4471202;32;20544;-86
2023/07/14 04:30:21;;;;;;;10.80;2.80;;;;;;;23.73;63.35;98305.31;4466272;32;145093;-86
2023/07/14 04:32:48;;;;;;;7.18;2.80;;;;;;;23.76;61.45;98310.28;4470876;32;20160;-86
2023/07/14 04:35:15;;;;;;;8.07;2.55;;;;;;;23.82;62.68;98315.00;4471311;32;20089;-86
2023/07/14 04:37:42;;;;;;;5.57;2.33;;;;;;;24.15;61.05;98305.75;4471047;32;20117;-86
2023/07/14 04:40:10;;;;;;;8.02;2.50;;;;;;;24.33;60.95;98308.44;4470821;32;20177;-86
2023/07/14 04:42:56;;;;;;;7.22;2.67;;;;;;;23.80;62.52;98311.66;4471025;32;20367;-86
2023/07/14 04:45:23;;;;;;;8.23;2.65;;;;;;;23.51;63.16;98316.13;4471027;32;20100;-86
2023/07/14 04:47:50;;;;;;;6.35;2.70;;;;;;;23.64;63.68;98328.06;4470574;32;20415;-86
2023/07/14 04:50:18;;;;;;;8.80;2.80;;;;;;;24.09;62.27;98326.56;4470921;32;20109;-86
2023/07/14 04:52:45;;;;;;;7.75;2.90;;;;;;;24.62;61.09;98331.22;4470669;32;20136;-87
2023/07/14 04:55:12;;;;;;;8.52;2.70;;;;;;;25.21;58.68;98330.75;4470920;32;20179;-86
2023/07/14 04:57:39;;;;;;;7.30;2.72;;;;;;;24.73;59.55;98328.38;4470787;32;20494;-86
2023/07/14 05:00:06;;;;;;;7.60;2.70;;;;;;;24.72;59.64;98334.66;4470564;32;20550;-86
2023/07/14 05:02:33;;;;;;;9.27;2.80;;;;;;;25.19;59.03;98331.84;4470954;32;20081;-86
2023/07/14 05:05:21;;;;;;;8.50;2.95;;;;;;;25.54;58.22;98336.31;4470794;32;20105;-86
2023/07/14 05:07:48;;;;;;;6.50;2.87;;;;;;;26.12;56.59;98347.13;4470275;32;20160;-86
2023/07/14 05:10:16;;;;;;;6.57;3.00;;;;;;;26.78;55.06;98348.28;4456747;32;20088;-86
2023/07/14 05:12:43;;;;;;;9.80;3.53;;;;;;;26.46;55.70;98349.81;4470822;32;20085;-86
2023/07/14 05:15:10;;;;;;;9.43;3.20;;;;;;;25.82;58.55;98351.06;4470287;32;20397;-86
2023/07/14 05:17:38;;;;;;;7.97;3.40;;;;;;;26.30;57.78;98349.72;4470527;32;20105;-86
2023/07/14 05:20:06;;;;;;;8.80;3.25;;;;;;;26.13;58.01;98350.59;4470864;32;20121;-86
2023/07/14 05:22:33;;;;;;;6.22;3.10;;;;;;;26.07;57.77;98352.06;4470452;32;20152;-87
2023/07/14 05:25:00;;;;;;;7.90;3.20;;;;;;;27.00;55.30;98350.34;4472788;32;20107;-86
2023/07/14 05:27:27;;;;;;;7.55;3.10;;;;;;;27.86;53.12;98352.63;4472791;32;20164;-86
2023/07/14 05:29:54;;;;;;;8.73;2.90;;;;;;;28.15;50.75;98346.75;4472244;32;20163;-86
2023/07/14 05:32:22;;;;;;;6.97;3.12;;;;;;;28.47;50.00;98351.16;4472786;32;20088;-87
2023/07/14 05:34:49;;;;;;;6.35;3.03;;;;;;;28.20;51.21;98363.00;4472422;32;20144;-86
2023/07/14 05:37:16;;;;;;;7.45;3.03;;;;;;;27.70;52.60;98362.41;4472536;32;20088;-86
2023/07/14 05:39:43;;;;;;;7.55;3.08;;;;;;;28.95;49.38;98357.28;4472557;32;20115;-86
2023/07/14 05:42:11;;;;;;;6.05;3.10;;;;;;;29.26;48.32;98351.12;4472315;32;20148;-87
2023/07/14 05:44:39;;;;;;;7.55;3.20;;;;;;;29.81;47.38;98353.53;4472444;32;20115;-87
2023/07/14 05:47:06;;;;;;;6.25;3.10;;;;;;;30.12;46.35;98353.44;4445746;32;20169;-86
2023/07/14 05:49:33;;;;;;;8.18;3.10;;;;;;;30.95;44.37;98356.81;4472244;32;20115;-86
2023/07/14 05:52:00;;;;;;;7.85;3.30;;;;;;;31.11;43.30;98367.22;4472426;32;20102;-86
2023/07/14 05:54:27;;;;;;;7.85;3.42;;;;;;;30.95;43.25;98368.28;4472504;32;20153;-86
2023/07/14 05:56:55;;;;;;;7.22;2.92;;;;;;;30.83;43.58;98379.59;4472205;32;20112;-86
2023/07/14 05:59:23;;;;;;;8.60;3.22;;;;;;;31.46;42.11;98375.38;4472397;32;20088;-86
2023/07/14 06:01:50;;;;;;;6.50;3.08;;;;;;;30.90;43.02;98381.31;4472449;32;20176;-87
2023/07/14 06:04:17;;;;;;;6.43;3.03;;;;;;;31.01;42.31;98369.37;4472135;32;20352;-86
2023/07/14 06:06:44;;;;;;;6.85;3.17;;;;;;;30.84;43.19;98378.56;4472096;32;20101;-86
2023/07/14 06:09:13;;;;;;;8.57;3.20;;;;;;;30.55;43.40;98376.75;4472186;32;20156;-86
2023/07/14 06:11:41;;;;;;;7.97;3.12;;;;;;;31.00;43.41;98379.19;4472086;32;20106;-86
2023/07/14 06:14:09;;;;;;;7.03;2.95;;;;;;;31.27;41.92;98375.03;4472507;32;20081;-86
2023/07/14 06:16:36;;;;;;;6.78;3.10;;;;;;;32.29;40.13;98389.84;4472405;32;20109;-86
2023/07/14 06:19:04;;;;;;;8.20;3.30;;;;;;;31.58;40.86;98390.72;4472112;32;20105;-84
2023/07/14 06:21:31;;;;;;;8.25;3.12;;;;;;;30.96;43.12;98391.25;4473451;32;20453;-85
2023/07/14 06:23:58;;;;;;;9.23;2.80;;;;;;;31.14;42.40;98382.00;4472519;32;20446;-87
2023/07/14 06:26:25;;;;;;;7.18;3.08;;;;;;;30.47;43.30;98383.00;4473714;32;20161;-86
2023/07/14 06:28:52;;;;;;;6.45;3.10;;;;;;;29.45;45.07;98374.56;4471672;32;20150;-86
2023/07/14 06:31:19;;;;;;;8.30;3.35;;;;;;;29.27;46.20;98384.69;4480194;32;20460;-84
2023/07/14 06:33:47;;;;;;;6.12;3.08;;;;;;;29.50;45.47;98380.22;4487710;32;20147;-84
2023/07/14 06:36:14;;;;;;;7.85;3.40;;;;;;;30.23;44.79;98376.94;4487796;32;20153;-84
2023/07/14 06:38:41;;;;;;;6.50;2.97;;;;;;;30.22;43.90;98382.44;4471773;32;20105;-83
2023/07/14 06:41:08;;;;;;;6.45;3.12;;;;;;;29.83;45.49;98387.94;4472163;32;20167;-82
2023/07/14 06:43:36;;;;;;;6.93;3.15;;;;;;;30.86;42.98;98392.56;4457950;32;20132;-83
2023/07/14 06:46:03;;;;;;;6.40;3.00;;;;;;;30.84;42.50;98399.87;4472307;32;20089;-86
2023/07/14 06:48:30;;;;;;;7.60;3.30;;;;;;;31.38;41.84;98401.19;4472136;32;20157;-85
2023/07/14 06:50:57;;;;;;;7.70;3.30;;;;;;;31.20;42.42;98389.28;4472272;32;20140;-87
2023/07/14 06:53:25;;;;;;;6.20;2.80;;;;;;;30.92;43.17;98395.28;4471744;32;20084;-86
2023/07/14 06:55:52;;;;;;;7.95;3.30;;;;;;;30.72;43.32;98392.37;4471971;32;20552;-85
2023/07/14 06:58:20;;;;;;;6.22;3.03;;;;;;;30.64;43.29;98395.16;4472044;32;20096;-85
2023/07/14 07:00:47;;;;;;;9.13;3.30;;;;;;;30.62;43.81;98399.78;4471926;32;20108;-82
2023/07/14 07:03:14;;;;;;;8.70;3.42;;;;;;;30.85;42.75;98399.72;4457948;32;20156;-85
2023/07/14 07:05:44;;;;;;;9.13;3.35;;;;;;;30.76;43.32;98399.00;4482488;32;20416;-87
2023/07/14 07:08:12;;;;;;;6.72;3.40;;;;;;;30.02;44.81;98395.41;4487206;31;20084;-85
2023/07/14 07:10:43;;;;;;;6.28;3.22;;;;;;;30.66;43.47;98401.13;4487446;32;20123;-85
2023/07/14 07:13:12;;;;;;;6.90;3.22;;;;;;;30.80;44.03;98394.94;4473145;32;20114;-86
2023/07/14 07:15:39;;;;;;;8.07;3.58;;;;;;;30.59;44.87;98388.69;4473591;32;20195;-86
2023/07/14 07:18:07;;;;;;;7.97;3.28;;;;;;;30.82;45.12;98392.09;4460536;32;20104;-85
2023/07/14 07:20:41;;;;;;;7.93;3.20;;;;;;;30.96;42.28;98391.25;4487251;32;20151;-85
2023/07/14 07:23:09;;;;;;;7.40;3.20;;;;;;;29.80;46.23;98390.97;4487656;32;20098;-85
2023/07/14 07:25:36;;;;;;;10.85;3.87;;;;;;;29.31;47.84;98391.28;4487478;32;20465;-86
2023/07/14 07:28:04;;;;;;;8.60;3.65;;;;;;;30.14;45.11;98395.81;4486754;32;20462;-85
2023/07/14 07:30:31;;;;;;;7.22;3.10;;;;;;;30.73;45.51;98396.72;4487128;32;20076;-86
2023/07/14 07:32:58;;;;;;;7.50;3.50;;;;;;;31.08;44.30;98380.94;4487582;32;20080;-86
2023/07/14 07:35:26;;;;;;;7.50;3.30;;;;;;;30.89;43.51;98389.50;4460239;32;20185;-87
2023/07/14 07:37:53;;;;;;;7.53;3.70;;;;;;;30.45;44.93;98388.50;4473315;32;20096;-87
2023/07/14 07:40:20;;;;;;;11.05;3.47;;;;;;;30.02;46.02;98383.94;4487487;32;20159;-85
2023/07/14 07:42:47;;;;;;;8.90;3.50;;;;;;;29.61;45.85;98386.94;4487071;32;20089;-85
2023/07/14 07:45:16;;;;;;;8.90;3.20;;;;;;;29.52;46.69;98383.53;4486699;32;20108;-86
2023/07/14 07:47:45;;;;;;;7.28;3.45;;;;;;;30.84;43.14;98382.09;4473266;32;20797;-85
2023/07/14 07:50:12;;;;;;;9.43;3.50;;;;;;;30.27;44.08;98385.37;4487097;32;20093;-85
2023/07/14 07:52:40;;;;;;;8.27;3.60;;;;;;;29.85;44.47;98381.41;4487190;31;20160;-85
2023/07/14 07:55:08;;;;;;;8.57;3.80;;;;;;;30.22;43.52;98391.25;4487074;31;20101;-85
2023/07/14 07:57:35;;;;;;;7.87;3.60;;;;;;;31.38;42.87;98389.69;4480713;32;20092;-86
2023/07/14 08:00:04;;;;;;;7.40;3.33;;;;;;;30.62;42.71;98391.78;4476491;32;20147;-85
2023/07/14 08:02:31;;;;;;;7.57;3.85;;;;;;;30.43;43.40;98397.69;4471320;32;20128;-85
2023/07/14 08:04:59;;;;;;;9.18;3.80;;;;;;;30.16;44.58;98396.47;4473440;32;20130;-85
2023/07/14 08:07:27;;;;;;;6.97;3.70;;;;;;;31.24;42.06;98393.22;4480621;32;20113;-85
2023/07/14 08:09:54;;;;;;;6.57;3.10;;;;;;;31.96;39.81;98393.09;4486964;32;20083;-86
2023/07/14 08:12:21;;;;;;;6.85;3.10;;;;;;;31.53;40.64;98395.78;4487262;32;20088;-86
2023/07/14 08:14:50;;;;;;;6.70;3.20;;;;;;;30.64;41.28;98391.66;4470747;32;20101;-86
2023/07/14 08:17:23;;;;;;;6.12;2.95;;;;;;;31.15;41.04;98389.81;4455828;32;20160;-86
2023/07/14 08:19:51;;;;;;;9.25;3.20;;;;;;;30.03;43.73;98389.09;4455698;32;20224;-87
2023/07/14 08:22:19;;;;;;;6.05;2.92;;;;;;;29.34;43.26;98381.12;4456625;32;20430;-85
2023/07/14 08:24:46;;;;;;;8.40;3.50;;;;;;;28.76;44.14;98392.22;4456999;32;20446;-84
2023/07/14 08:27:17;;;;;;;7.95;3.37;;;;;;;29.16;44.86;98382.41;4457110;32;20162;-84
2023/07/14 08:29:44;;;;;;;6.55;3.20;;;;;;;30.21;42.66;98383.47;4471038;32;20081;-88
2023/07/14 08:32:11;;;;;;;5.50;2.97;;;;;;;30.61;41.86;98382.16;4470766;32;20081;-86
2023/07/14 08:34:37;;;;;;;8.98;3.15;;;;;;;30.80;41.10;98381.62;4471170;32;20089;-86
2023/07/14 08:37:04;;;;;;;7.45;3.33;;;;;;;29.74;43.46;98375.69;4470885;32;20101;-86
2023/07/14 08:39:32;;;;;;;7.03;2.90;;;;;;;30.11;43.89;98382.91;4471134;32;20093;-86
2023/07/14 08:42:07;;;;;;;8.00;3.22;;;;;;;30.38;42.54;98390.25;4457059;32;20103;-85
2023/07/14 08:44:44;;;;;;;7.97;3.45;;;;;;;30.24;42.66;98389.22;4470823;32;20093;-86
2023/07/14 08:47:44;;;;;;;7.15;3.20;;;;;;;31.38;41.26;98382.53;4470928;32;20096;-87
2023/07/14 08:50:16;;;;;;;7.03;3.10;;;;;;;32.63;37.84;98395.22;4462639;32;20093;-85
2023/07/14 08:52:44;;;;;;;7.43;3.25;;;;;;;32.13;37.44;98391.81;4470710;32;20459;-85
2023/07/14 08:55:18;;;;;;;9.02;3.15;;;;;;;32.52;37.38;98396.59;4470916;32;20101;-85
2023/07/14 08:57:59;;;;;;;7.30;2.80;;;;;;;31.63;39.61;98395.47;4457959;32;20113;-85
2023/07/14 09:00:53;;;;;;;9.68;3.00;;;;;;;31.80;38.10;98396.06;4472383;32;20147;-85
2023/07/14 09:03:42;;;;;;;6.15;3.08;;;;;;;31.93;37.45;98396.16;4470305;32;20107;-86
2023/07/14 09:06:30;;;;;;;7.50;3.37;;;;;;;33.06;35.89;98397.69;4458572;32;20105;-86
2023/07/14 09:08:57;;;;;;;7.53;3.08;;;;;;;33.21;36.46;98389.50;4458880;32;20176;-85
2023/07/14 09:11:44;;;;;;;9.52;3.53;;;;;;;33.63;34.59;98394.56;4458728;32;20145;-85
2023/07/14 09:14:43;;;;;;;7.50;3.10;;;;;;;33.60;36.48;98394.13;4458555;32;20148;-85
2023/07/14 09:17:19;;;;;;;6.32;3.00;;;;;;;33.05;36.55;98398.72;4472724;32;20156;-85
2023/07/14 09:19:57;;;;;;;7.12;3.10;;;;;;;34.04;35.25;98387.41;4458516;32;20100;-85
2023/07/14 09:22:46;;;;;;;7.37;3.30;;;;;;;32.72;36.28;98390.53;4472795;32;20097;-85
2023/07/14 09:25:48;;;;;;;7.07;3.05;;;;;;;31.53;38.24;98384.28;4472834;32;20076;-86
2023/07/14 09:28:23;;;;;;;7.87;3.28;;;;;;;31.29;38.83;98393.50;4434181;32;20124;-85
2023/07/14 09:30:51;;;;;;;7.65;3.10;;;;;;;31.03;38.63;98393.97;4458533;32;20129;-84
2023/07/14 09:33:18;;;;;;;6.53;2.80;;;;;;;31.31;39.08;98386.94;4458365;32;20418;-85
2023/07/14 09:35:47;;;;;;;7.05;3.25;;;;;;;31.56;38.29;98389.22;4472706;32;20107;-85
2023/07/14 09:38:37;;;;;;;7.85;3.60;;;;;;;32.21;37.04;98388.16;4458469;32;20426;-86
2023/07/14 09:41:05;;;;;;;4.87;2.75;;;;;;;33.18;37.97;98385.41;4472295;32;20106;-86
2023/07/14 09:43:32;;;;;;;11.35;3.30;;;;;;;32.74;36.02;98389.31;4458628;32;20449;-85
2023/07/14 09:46:00;;;;;;;7.00;3.25;;;;;;;32.30;37.82;98384.34;4472471;32;20536;-86
2023/07/14 09:48:33;;;;;;;7.68;3.20;;;;;;;32.32;39.61;98387.63;4472023;32;20503;-86
2023/07/14 09:51:06;;;;;;;9.45;3.00;;;;;;;32.24;41.21;98393.13;4458420;32;20132;-87
2023/07/14 09:53:33;;;;;;;7.12;2.92;;;;;;;33.07;36.37;98388.62;4458510;32;20089;-86
2023/07/14 09:56:05;;;;;;;5.28;2.65;;;;;;;32.52;37.00;98385.09;4458019;32;20122;-84
2023/07/14 09:58:33;;;;;;;6.28;3.15;;;;;;;33.48;34.83;98388.56;4458555;32;20109;-84
2023/07/14 10:01:04;;;;;;;7.50;3.20;;;;;;;33.68;35.43;98385.91;4472396;32;20124;-85
2023/07/14 10:03:42;;;;;;;8.35;3.12;;;;;;;34.27;35.91;98384.28;4472210;32;20192;-86
2023/07/14 10:06:16;;;;;;;7.28;3.12;;;;;;;34.27;36.37;98393.13;4473562;32;20093;-85
2023/07/14 10:08:50;;;;;;;8.43;3.22;;;;;;;34.16;38.37;98383.88;4473217;32;20120;-85
2023/07/14 10:11:17;;;;;;;7.75;3.47;;;;;;;34.10;37.32;98379.34;4473463;32;20092;-84
2023/07/14 10:13:57;;;;;;;9.93;3.42;;;;;;;33.49;39.18;98376.00;4473591;32;20780;-84
2023/07/14 10:16:25;;;;;;;7.50;3.30;;;;;;;33.16;37.78;98375.91;4472195;32;20103;-84
2023/07/14 10:18:57;;;;;;;6.75;2.83;;;;;;;33.13;39.89;98377.16;4472565;32;20093;-85
2023/07/14 10:21:31;;;;;;;6.28;2.72;;;;;;;32.58;37.83;98373.62;4474187;32;20092;-86
2023/07/14 10:24:12;;;;;;;6.47;3.10;;;;;;;32.80;37.92;98374.34;4472646;32;20109;-85
2023/07/14 10:26:42;;;;;;;7.80;3.30;;;;;;;32.41;40.03;98367.75;4458252;32;20080;-86
2023/07/14 10:29:16;;;;;;;7.18;3.12;;;;;;;32.41;42.16;98378.44;4458231;32;20092;-85
2023/07/14 10:31:51;;;;;;;9.02;3.62;;;;;;;31.49;40.69;98369.69;4472140;32;20096;-86
2023/07/14 10:34:30;;;;;;;6.87;3.37;;;;;;;31.00;42.61;98363.22;4458418;32;20119;-83
2023/07/14 10:36:59;;;;;;;6.93;3.30;;;;;;;30.45;42.93;98359.22;4472507;32;20543;-85
2023/07/14 10:39:37;;;;;;;6.20;3.20;;;;;;;30.57;45.27;98364.09;4472138;32;20157;-84
2023/07/14 10:42:10;;;;;;;6.43;3.28;;;;;;;31.06;42.53;98359.81;4458196;32;20105;-85
2023/07/14 10:44:40;;;;;;;8.85;3.08;;;;;;;31.78;40.53;98363.41;4471916;32;20084;-84
2023/07/14 10:47:17;;;;;;;4.70;2.60;;;;;;;31.58;39.31;98356.03;4457961;32;20145;-84
2023/07/14 10:50:07;;;;;;;5.45;3.08;;;;;;;31.76;39.67;98347.59;4472189;32;20153;-85
2023/07/14 10:52:39;;;;;;;6.10;2.90;;;;;;;31.18;41.25;98351.31;4471873;32;20453;-84
2023/07/14 10:55:18;;;;;;;4.87;2.70;;;;;;;31.20;39.21;98344.81;4472187;32;20103;-84
2023/07/14 10:57:54;;;;;;;6.40;2.65;;;;;;;30.19;42.71;98348.19;4457706;32;20081;-83
2023/07/14 11:00:52;;;;;;;4.87;2.80;;;;;;;30.45;40.11;98342.41;4458114;32;20506;-83
2023/07/14 11:03:29;;;;;;;6.95;2.70;;;;;;;30.56;41.37;98341.97;4458182;32;20122;-83
2023/07/14 11:06:03;;;;;;;6.82;2.58;;;;;;;30.67;40.15;98335.34;4457773;32;20092;-83
2023/07/14 11:08:35;;;;;;;6.32;2.70;;;;;;;30.56;37.46;98339.28;4458023;32;20170;-84
2023/07/14 11:11:23;;;;;;;8.52;2.83;;;;;;;30.86;39.38;98334.78;4472151;32;20108;-85
2023/07/14 11:14:21;;;;;;;5.05;2.50;;;;;;;31.05;38.79;98333.31;4472125;32;20151;-84
2023/07/14 11:17:18;;;;;;;5.32;2.42;;;;;;;31.05;37.53;98334.19;4472043;32;20103;-84
2023/07/14 11:20:08;;;;;;;6.87;2.50;;;;;;;30.57;37.49;98332.94;4457191;32;20152;-84
2023/07/14 11:22:58;;;;;;;4.55;2.40;;;;;;;31.18;37.65;98325.47;4433835;32;20131;-85
2023/07/14 11:25:45;;;;;;;5.50;2.25;;;;;;;30.65;35.13;98322.22;4471907;32;20102;-84
2023/07/14 11:28:36;;;;;;;5.75;2.10;;;;;;;31.76;33.40;98326.25;4457819;32;20088;-84
2023/07/14 11:31:13;;;;;;;5.30;2.10;;;;;;;31.66;35.70;98328.38;4457367;32;20080;-84
2023/07/14 11:33:48;;;;;;;4.15;1.90;;;;;;;31.97;33.98;98327.22;4471485;32;20089;-84
2023/07/14 11:36:26;;;;;;;5.32;2.35;;;;;;;31.73;33.63;98328.47;4471811;32;20088;-84
2023/07/14 11:39:14;;;;;;;4.55;2.17;;;;;;;31.78;33.09;98324.19;4457721;32;20175;-83
2023/07/14 11:41:41;;;;;;;7.25;2.30;;;;;;;31.50;34.38;98323.34;4471252;32;20088;-84
2023/07/14 11:44:18;;;;;;;4.57;2.10;;;;;;;31.54;34.71;98325.44;4471697;32;20105;-84
2023/07/14 11:46:45;;;;;;;;;;;;;;;31.45;34.42;98325.75;4457680;32;20112;-85
2023/07/14 11:49:24;;;;;;;3.55;1.90;;;;;;;32.29;31.88;98326.63;4471492;32;19971;-85